Hauptseite
METAR-TAF:

METAR-TAF

Flughäfen :

Flughafen Lübeck

Lübeck, Deutschland

Breite: 53-49N, Länge: 010-42E, Höhe: 14 m

Beobachtung

Neuester Wetterbericht von vor 9 Stunden und 25 Minuten, um 17:50 UTC
Wind 4 kt aus Ost, variierte zwischen Ost/Nordost und Südost
Temperatur 6°C
Luftfeuchtigkeit 75%
Luftdruck 1035 hPa
Sichtweite 10 km oder mehr
keine Wolken unter 1500 m und keine Kumulonimbus oder Gewitterwolken

METAR: EDHL 161750Z 10004KT 070V140 CAVOK 06/02 Q1035

Zeit: 04:15 (03:15 UTC)

Prognose

Neuester Wetterbericht von vor 10 Stunden und 15 Minuten, um 17:00 UTC
Gültige Prognose vom 16 um 18 UTC bis 16 um 21 UTC
Wind 5 kt aus Ost/Südost
Sichtweite 10 km oder mehr
keine Wolken unter 1500 m und keine Kumulonimbus oder Gewitterwolken

TAF: EDHL 161700Z 1618/1621 11005KT CAVOK

Wetterbeobachtungen und Prognosen von mehr als 4000 Flughäfen (METAR und TAF Bericht).

Die verfügbaren Stationen werden durch gelbe und rote Markierungen auf der Karte dargestellt.

Führen Sie die Maus auf sie, um den Namen der Station zu sehen.

Darauf klicken, um die Beobachtung von Wetterbeobachtungen und Prognosen zu sehen.

Um die Karte zu ändern : klicken Sie auf den grünen Tasten mit einem schwarzen Kreuz Zum Vergrößern, auf den grünen Button mit einem Gedankenstrich zu verkleinern, oder auf die grünen Pfeile für benachbarte Karten.


METAR-TAF: